createdAt,value
2022-12-11T00:01:26.878Z,99399.59
2022-12-11T00:03:53.416Z,99400.27
2022-12-11T00:06:22.109Z,99395.80
2022-12-11T00:08:53.226Z,99391.15
2022-12-11T00:11:20.563Z,99386.65
2022-12-11T00:13:46.904Z,99387.82
2022-12-11T00:16:14.879Z,99389.90
2022-12-11T00:18:41.764Z,99394.63
2022-12-11T00:21:11.751Z,99393.74
2022-12-11T00:23:38.624Z,99393.42
2022-12-11T00:26:07.070Z,99388.66
2022-12-11T00:28:33.691Z,99387.64
2022-12-11T00:31:04.625Z,99394.73
2022-12-11T00:33:31.006Z,99391.70
2022-12-11T00:35:57.373Z,99392.42
2022-12-11T00:38:24.040Z,99395.21
2022-12-11T00:40:50.666Z,99394.27
2022-12-11T00:43:17.149Z,99395.12
2022-12-11T00:45:45.503Z,99394.34
2022-12-11T00:48:12.678Z,99395.38
2022-12-11T00:50:39.654Z,99393.42
2022-12-11T00:53:06.695Z,99395.23
2022-12-11T00:55:37.583Z,99390.95
2022-12-11T00:58:04.098Z,99390.73
2022-12-11T01:00:30.605Z,99389.96
2022-12-11T01:02:57.022Z,99385.68
2022-12-11T01:05:23.417Z,99385.86
2022-12-11T01:07:49.813Z,99391.75
2022-12-11T01:10:25.657Z,99399.14
2022-12-11T01:12:59.836Z,99404.48
2022-12-11T01:15:32.175Z,99409.98
2022-12-11T01:17:58.890Z,99416.98
2022-12-11T01:20:27.558Z,99419.02
2022-12-11T01:22:55.604Z,99423.41
2022-12-11T01:25:22.032Z,99422.23
2022-12-11T01:27:53.290Z,99423.22
2022-12-11T01:30:20.604Z,99425.95
2022-12-11T01:32:47.298Z,99424.15
2022-12-11T01:35:14.324Z,99420.46
2022-12-11T01:37:41.106Z,99422.95
2022-12-11T01:40:09.063Z,99422.92
2022-12-11T01:42:35.462Z,99421.23
2022-12-11T01:45:20.836Z,99418.75
2022-12-11T01:48:11.388Z,99408.48
2022-12-11T01:50:42.190Z,99413.98
2022-12-11T01:53:11.985Z,99412.42
2022-12-11T01:55:39.338Z,99412.96
2022-12-11T01:58:06.336Z,99412.94
2022-12-11T02:00:32.711Z,99413.88
2022-12-11T02:02:59.057Z,99411.52
2022-12-11T02:05:25.455Z,99402.13
2022-12-11T02:07:57.769Z,99398.05
2022-12-11T02:10:24.174Z,99390.17
2022-12-11T02:12:56.036Z,99379.75
2022-12-11T02:15:33.042Z,99370.06
2022-12-11T02:18:20.016Z,99369.61
2022-12-11T02:20:55.436Z,99371.63
2022-12-11T02:23:58.291Z,99372.56
2022-12-11T02:26:48.927Z,99376.08
2022-12-11T02:29:22.588Z,99372.64
2022-12-11T02:32:03.311Z,99373.30
2022-12-11T02:34:45.079Z,99373.97
2022-12-11T02:37:16.228Z,99372.36
2022-12-11T02:39:43.923Z,99371.67
2022-12-11T02:42:11.127Z,99371.11
2022-12-11T02:44:38.845Z,99369.08
2022-12-11T02:47:08.023Z,99373.15
2022-12-11T02:49:34.977Z,99374.13
2022-12-11T02:52:03.561Z,99371.80
2022-12-11T02:54:32.731Z,99371.29
2022-12-11T02:57:06.809Z,99370.41
2022-12-11T02:59:36.612Z,99369.67
2022-12-11T03:02:03.669Z,99374.73
2022-12-11T03:04:30.683Z,99373.31
2022-12-11T03:07:01.185Z,99375.91
2022-12-11T03:09:28.002Z,99380.29
2022-12-11T03:11:54.545Z,99384.86
2022-12-11T03:14:20.873Z,99380.58
2022-12-11T03:16:56.419Z,99383.06
2022-12-11T03:19:41.874Z,99384.81
2022-12-11T03:22:12.208Z,99386.92
2022-12-11T03:25:02.140Z,99382.22
2022-12-11T03:27:39.591Z,99374.25
2022-12-11T03:30:17.778Z,99370.52
2022-12-11T03:32:50.923Z,99367.11
2022-12-11T03:35:34.973Z,99373.67
2022-12-11T03:38:06.459Z,99374.12
2022-12-11T03:40:35.082Z,99371.45
2022-12-11T03:43:02.514Z,99370.35
2022-12-11T03:45:29.632Z,99368.91
2022-12-11T03:47:57.596Z,99363.79
2022-12-11T03:50:25.980Z,99364.67
2022-12-11T03:52:53.367Z,99362.83
2022-12-11T03:55:21.075Z,99365.06
2022-12-11T03:57:47.884Z,99359.08
2022-12-11T04:00:17.422Z,99364.85
2022-12-11T04:02:43.961Z,99361.85
2022-12-11T04:05:11.376Z,99360.67
2022-12-11T04:07:37.974Z,99353.08
2022-12-11T04:10:05.894Z,99357.88
2022-12-11T04:12:32.280Z,99358.01
2022-12-11T04:15:01.617Z,99351.14
2022-12-11T04:17:52.895Z,99350.98
2022-12-11T04:20:38.316Z,99350.34
2022-12-11T04:23:25.706Z,99348.18
2022-12-11T04:25:52.045Z,99357.56
2022-12-11T04:28:18.329Z,99351.33
2022-12-11T04:30:48.899Z,99348.24
2022-12-11T04:33:15.299Z,99349.88
2022-12-11T04:35:41.622Z,99351.06
2022-12-11T04:38:07.944Z,99353.64
2022-12-11T04:40:34.283Z,99350.23
2022-12-11T04:43:00.607Z,99349.14
2022-12-11T04:45:26.943Z,99347.50
2022-12-11T04:47:53.309Z,99342.66
2022-12-11T04:50:19.708Z,99345.11
2022-12-11T04:52:46.114Z,99340.91
2022-12-11T04:55:12.986Z,99340.16
2022-12-11T04:57:40.178Z,99341.27
2022-12-11T05:00:10.195Z,99341.31
2022-12-11T05:02:38.079Z,99339.83
2022-12-11T05:05:05.843Z,99334.27
2022-12-11T05:07:32.326Z,99333.29
2022-12-11T05:09:58.671Z,99329.48
2022-12-11T05:12:25.139Z,99319.48
2022-12-11T05:14:54.957Z,99317.41
2022-12-11T05:17:21.891Z,99322.19
2022-12-11T05:19:49.544Z,99324.41
2022-12-11T05:22:17.066Z,99318.14
2022-12-11T05:24:44.312Z,99318.67
2022-12-11T05:27:10.957Z,99318.91
2022-12-11T05:29:37.332Z,99313.17
2022-12-11T05:32:04.396Z,99316.59
2022-12-11T05:34:30.876Z,99312.17
2022-12-11T05:36:57.209Z,99309.27
2022-12-11T05:39:23.622Z,99308.52
2022-12-11T05:41:49.955Z,99309.75
2022-12-11T05:44:16.255Z,99311.92
2022-12-11T05:46:42.726Z,99307.70
2022-12-11T05:49:09.672Z,99308.45
2022-12-11T05:51:36.015Z,99309.94
2022-12-11T05:54:02.681Z,99315.54
2022-12-11T05:56:31.393Z,99316.14
2022-12-11T05:58:59.569Z,99320.27
2022-12-11T06:01:35.528Z,99326.89
2022-12-11T06:04:02.312Z,99331.05
2022-12-11T06:06:28.703Z,99325.77
2022-12-11T06:08:57.858Z,99324.30
2022-12-11T06:11:25.162Z,99323.16
2022-12-11T06:13:52.137Z,99325.47
2022-12-11T06:16:19.462Z,99323.93
2022-12-11T06:18:46.140Z,99323.16
2022-12-11T06:21:25.782Z,99321.83
2022-12-11T06:23:53.748Z,99322.17
2022-12-11T06:26:21.088Z,99318.86
2022-12-11T06:28:48.033Z,99322.26
2022-12-11T06:31:15.704Z,99319.98
2022-12-11T06:33:42.873Z,99320.27
2022-12-11T06:36:20.702Z,99324.96
2022-12-11T06:38:47.626Z,99329.77
2022-12-11T06:41:14.649Z,99339.61
2022-12-11T06:43:42.385Z,99341.11
2022-12-11T06:46:15.095Z,99348.28
2022-12-11T06:48:42.601Z,99350.38
2022-12-11T06:51:11.810Z,99354.81
2022-12-11T06:53:38.912Z,99358.96
2022-12-11T06:56:07.668Z,99367.91
2022-12-11T06:58:35.541Z,99365.88
2022-12-11T07:01:03.773Z,99363.40
2022-12-11T07:03:30.409Z,99357.04
2022-12-11T07:06:01.597Z,99354.02
2022-12-11T07:08:28.783Z,99355.55
2022-12-11T07:10:55.170Z,99350.58
2022-12-11T07:13:21.832Z,99352.64
2022-12-11T07:15:48.223Z,99347.72
2022-12-11T07:18:14.547Z,99350.20
2022-12-11T07:20:40.899Z,99353.12
2022-12-11T07:23:07.453Z,99350.71
2022-12-11T07:25:33.745Z,99353.27
2022-12-11T07:28:00.037Z,99355.02
2022-12-11T07:30:26.400Z,99357.48
2022-12-11T07:32:52.771Z,99362.13
2022-12-11T07:35:19.170Z,99363.51
2022-12-11T07:37:45.511Z,99362.86
2022-12-11T07:40:13.014Z,99365.88
2022-12-11T07:42:45.834Z,99371.28
2022-12-11T07:45:12.954Z,99374.89
2022-12-11T07:47:39.533Z,99376.39
2022-12-11T07:50:06.032Z,99379.17
2022-12-11T07:52:33.278Z,99378.89
2022-12-11T07:54:59.803Z,99375.89
2022-12-11T07:57:27.070Z,99372.38
2022-12-11T07:59:53.433Z,99369.41
2022-12-11T08:02:19.812Z,99368.66
2022-12-11T08:04:46.272Z,99367.99
2022-12-11T08:07:12.709Z,99365.06
2022-12-11T08:09:39.242Z,99362.20
2022-12-11T08:12:05.644Z,99359.20
2022-12-11T08:14:32.106Z,99361.95
2022-12-11T08:16:59.534Z,99363.20
2022-12-11T08:19:27.230Z,99364.37
2022-12-11T08:21:53.657Z,99369.33
2022-12-11T08:24:20.256Z,99362.05
2022-12-11T08:26:47.703Z,99361.40
2022-12-11T08:29:14.336Z,99363.95
2022-12-11T08:31:41.525Z,99366.69
2022-12-11T08:34:08.063Z,99369.29
2022-12-11T08:36:34.436Z,99367.64
2022-12-11T08:39:00.736Z,99368.81
2022-12-11T08:41:28.916Z,99368.30
2022-12-11T08:43:56.876Z,99368.55
2022-12-11T08:46:25.218Z,99367.88
2022-12-11T08:48:52.544Z,99370.95
2022-12-11T08:51:20.456Z,99371.88
2022-12-11T08:53:46.824Z,99370.64
2022-12-11T08:56:15.996Z,99372.56
2022-12-11T08:58:43.339Z,99369.59
2022-12-11T09:01:23.622Z,99367.41
2022-12-11T09:03:51.110Z,99373.90
2022-12-11T09:06:20.250Z,99368.51
2022-12-11T09:08:52.177Z,99371.59
2022-12-11T09:11:22.350Z,99369.71
2022-12-11T09:13:48.833Z,99367.44
2022-12-11T09:16:17.199Z,99362.09
2022-12-11T09:18:47.684Z,99364.80
2022-12-11T09:21:16.552Z,99356.73
2022-12-11T09:23:43.797Z,99353.00
2022-12-11T09:26:12.721Z,99348.04
2022-12-11T09:28:45.705Z,99349.73
2022-12-11T09:31:15.544Z,99345.73
2022-12-11T09:33:42.192Z,99339.06
2022-12-11T09:36:09.378Z,99337.69
2022-12-11T09:38:35.938Z,99332.52
2022-12-11T09:41:20.889Z,99329.20
2022-12-11T09:44:11.990Z,99327.72
2022-12-11T09:46:40.294Z,99330.08
2022-12-11T09:49:17.595Z,99328.64
2022-12-11T09:51:51.693Z,99327.80
2022-12-11T09:54:18.053Z,99320.23
2022-12-11T09:56:59.635Z,99315.80
2022-12-11T10:00:17.632Z,99310.23
2022-12-11T10:02:55.690Z,99307.81
2022-12-11T10:05:30.554Z,99306.94
2022-12-11T10:08:08.652Z,99304.95
2022-12-11T10:10:42.375Z,99302.81
2022-12-11T10:13:36.432Z,99298.52
2022-12-11T10:16:12.374Z,99299.26
2022-12-11T10:18:39.542Z,99285.13
2022-12-11T10:21:06.468Z,99281.48
2022-12-11T10:23:42.646Z,99283.35
2022-12-11T10:26:16.959Z,99282.98
2022-12-11T10:28:43.691Z,99280.45
2022-12-11T10:31:17.849Z,99278.20
2022-12-11T10:33:59.135Z,99275.98
2022-12-11T10:36:40.170Z,99276.63
2022-12-11T10:39:15.139Z,99273.02
2022-12-11T10:41:47.676Z,99278.23
2022-12-11T10:44:24.694Z,99280.23
2022-12-11T10:47:10.114Z,99279.86
2022-12-11T10:49:38.413Z,99274.25
2022-12-11T10:52:17.847Z,99271.21
2022-12-11T10:54:48.129Z,99267.37
2022-12-11T10:57:15.097Z,99264.14
2022-12-11T10:59:49.381Z,99264.34
2022-12-11T11:02:24.419Z,99259.46
2022-12-11T11:04:51.509Z,99259.73
2022-12-11T11:07:17.859Z,99257.73
2022-12-11T11:09:44.608Z,99258.67
2022-12-11T11:12:24.083Z,99256.29
2022-12-11T11:15:01.576Z,99250.73
2022-12-11T11:17:33.631Z,99249.61
2022-12-11T11:20:06.728Z,99252.94
2022-12-11T11:22:38.680Z,99243.10
2022-12-11T11:25:05.809Z,99236.23
2022-12-11T11:28:03.385Z,99231.39
2022-12-11T11:30:40.080Z,99229.88
2022-12-11T11:33:15.548Z,99229.29
2022-12-11T11:35:52.439Z,99224.77
2022-12-11T11:38:21.718Z,99227.09
2022-12-11T11:41:03.902Z,99220.80
2022-12-11T11:43:59.039Z,99220.86
2022-12-11T11:46:35.758Z,99218.30
2022-12-11T11:49:24.121Z,99217.45
2022-12-11T11:52:03.701Z,99211.15
2022-12-11T11:54:36.963Z,99208.90
2022-12-11T11:57:13.353Z,99205.39
2022-12-11T11:59:44.266Z,99201.48
2022-12-11T12:02:15.996Z,99200.64
2022-12-11T12:04:43.862Z,99196.91
2022-12-11T12:07:24.106Z,99199.52
2022-12-11T12:10:13.719Z,99206.85
2022-12-11T12:12:52.058Z,99203.62
2022-12-11T12:15:48.037Z,99210.98
2022-12-11T12:18:42.573Z,99207.71
2022-12-11T12:21:18.387Z,99203.18
2022-12-11T12:23:53.401Z,99201.48
2022-12-11T12:26:28.541Z,99203.16
2022-12-11T12:29:20.895Z,99204.66
2022-12-11T12:32:13.455Z,99201.30
2022-12-11T12:34:45.811Z,99198.03
2022-12-11T12:37:21.419Z,99198.35
2022-12-11T12:40:00.370Z,99201.05
2022-12-11T12:42:45.351Z,99203.00
2022-12-11T12:45:14.930Z,99205.67
2022-12-11T12:47:43.059Z,99205.96
2022-12-11T12:50:21.370Z,99207.61
2022-12-11T12:52:48.656Z,99206.60
2022-12-11T12:55:22.329Z,99201.09
2022-12-11T12:58:06.641Z,99195.73
2022-12-11T13:00:36.040Z,99197.39
2022-12-11T13:03:26.301Z,99196.36
2022-12-11T13:06:02.577Z,99199.98
2022-12-11T13:08:46.239Z,99201.69
2022-12-11T13:11:15.739Z,99205.70
2022-12-11T13:14:02.396Z,99201.56
2022-12-11T13:16:39.972Z,99206.23
2022-12-11T13:19:17.370Z,99207.44
2022-12-11T13:21:57.383Z,99206.05
2022-12-11T13:24:26.890Z,99203.54
2022-12-11T13:26:53.526Z,99201.52
2022-12-11T13:29:46.681Z,99209.09
2022-12-11T13:32:12.944Z,99201.80
2022-12-11T13:34:41.611Z,99204.45
2022-12-11T13:37:35.737Z,99198.90
2022-12-11T13:40:06.032Z,99201.72
2022-12-11T13:42:47.620Z,99200.62
2022-12-11T13:45:43.955Z,99201.96
2022-12-11T13:48:47.155Z,99199.00
2022-12-11T13:51:22.046Z,99203.55
2022-12-11T13:53:48.909Z,99201.98
2022-12-11T13:56:17.967Z,99201.71
2022-12-11T13:58:44.733Z,99203.30
2022-12-11T14:01:15.436Z,99205.88
2022-12-11T14:03:54.776Z,99203.44
2022-12-11T14:06:21.461Z,99205.58
2022-12-11T14:08:50.137Z,99202.35
2022-12-11T14:11:30.411Z,99202.65
2022-12-11T14:13:59.482Z,99199.81
2022-12-11T14:16:27.246Z,99202.38
2022-12-11T14:18:57.431Z,99208.57
2022-12-11T14:21:25.348Z,99204.84
2022-12-11T14:23:53.935Z,99210.10
2022-12-11T14:26:25.963Z,99209.72
2022-12-11T14:28:52.862Z,99214.60
2022-12-11T14:31:33.228Z,99214.38
2022-12-11T14:34:07.601Z,99211.87
2022-12-11T14:36:34.712Z,99208.90
2022-12-11T14:39:06.968Z,99206.67
2022-12-11T14:41:36.241Z,99203.13
2022-12-11T14:44:04.651Z,99208.14
2022-12-11T14:46:39.652Z,99203.24
2022-12-11T14:49:17.360Z,99207.64
2022-12-11T14:51:43.963Z,99206.79
2022-12-11T14:54:32.597Z,99206.20
2022-12-11T14:57:00.956Z,99207.16
2022-12-11T14:59:32.088Z,99208.77
2022-12-11T15:02:20.719Z,99209.60
2022-12-11T15:05:00.795Z,99207.91
2022-12-11T15:07:27.215Z,99210.27
2022-12-11T15:09:53.687Z,99213.43
2022-12-11T15:12:21.241Z,99208.04
2022-12-11T15:14:56.808Z,99215.98
2022-12-11T15:17:25.029Z,99215.23
2022-12-11T15:19:54.345Z,99210.70
2022-12-11T15:22:25.497Z,99207.08
2022-12-11T15:24:53.388Z,99206.09
2022-12-11T15:27:39.143Z,99208.77
2022-12-11T15:30:18.011Z,99205.22
2022-12-11T15:32:44.937Z,99203.11
2022-12-11T15:35:25.876Z,99202.18
2022-12-11T15:37:54.106Z,99206.20
2022-12-11T15:40:21.371Z,99210.76
2022-12-11T15:42:49.463Z,99209.37
2022-12-11T15:45:18.489Z,99205.95
2022-12-11T15:47:46.209Z,99205.86
2022-12-11T15:50:21.920Z,99209.89
2022-12-11T15:52:49.531Z,99207.70
2022-12-11T15:55:17.075Z,99210.99
2022-12-11T15:57:50.362Z,99208.36
2022-12-11T16:00:18.714Z,99207.77
2022-12-11T16:02:46.171Z,99201.91
2022-12-11T16:05:14.010Z,99201.03
2022-12-11T16:07:40.621Z,99200.99
2022-12-11T16:10:07.893Z,99200.65
2022-12-11T16:12:34.522Z,99200.95
2022-12-11T16:15:01.112Z,99199.67
2022-12-11T16:17:28.295Z,99201.62
2022-12-11T16:19:55.256Z,99198.83
2022-12-11T16:22:27.620Z,99199.20
2022-12-11T16:24:54.384Z,99199.02
2022-12-11T16:27:23.377Z,99204.52
2022-12-11T16:29:50.653Z,99200.44
2022-12-11T16:32:18.024Z,99205.58
2022-12-11T16:34:44.375Z,99207.34
2022-12-11T16:37:11.136Z,99206.61
2022-12-11T16:39:38.179Z,99201.81
2022-12-11T16:42:05.657Z,99197.64
2022-12-11T16:44:32.228Z,99194.97
2022-12-11T16:46:58.661Z,99190.90
2022-12-11T16:49:25.193Z,99188.23
2022-12-11T16:51:52.124Z,99185.02
2022-12-11T16:54:18.776Z,99184.55
2022-12-11T16:56:45.475Z,99190.04
2022-12-11T16:59:12.210Z,99189.41
2022-12-11T17:01:38.822Z,99188.44
2022-12-11T17:04:06.020Z,99187.93
2022-12-11T17:06:33.091Z,99191.56
2022-12-11T17:09:00.081Z,99185.52
2022-12-11T17:11:26.531Z,99184.98
2022-12-11T17:13:58.161Z,99179.83
2022-12-11T17:16:28.247Z,99178.73
2022-12-11T17:18:56.164Z,99173.86
2022-12-11T17:21:23.381Z,99175.80
2022-12-11T17:23:50.180Z,99175.48
2022-12-11T17:26:17.702Z,99179.09
2022-12-11T17:28:44.803Z,99180.05
2022-12-11T17:31:15.211Z,99183.42
2022-12-11T17:33:43.596Z,99182.67
2022-12-11T17:36:12.723Z,99183.66
2022-12-11T17:38:39.193Z,99185.91
2022-12-11T17:41:08.581Z,99183.91
2022-12-11T17:43:35.346Z,99185.56
2022-12-11T17:46:02.852Z,99186.86
2022-12-11T17:48:29.561Z,99182.98
2022-12-11T17:50:56.257Z,99186.40
2022-12-11T17:53:23.431Z,99184.48
2022-12-11T17:55:51.067Z,99184.56
2022-12-11T17:58:21.171Z,99185.80
2022-12-11T18:00:52.814Z,99182.92
2022-12-11T18:03:20.158Z,99190.60
2022-12-11T18:05:49.913Z,99194.05
2022-12-11T18:08:18.806Z,99192.41
2022-12-11T18:10:45.431Z,99189.52
2022-12-11T18:13:12.291Z,99190.76
2022-12-11T18:15:39.234Z,99186.23
2022-12-11T18:18:06.712Z,99187.92
2022-12-11T18:20:33.826Z,99189.70
2022-12-11T18:23:00.599Z,99190.73
2022-12-11T18:25:27.190Z,99192.14
2022-12-11T18:27:57.021Z,99189.16
2022-12-11T18:30:24.264Z,99191.13
2022-12-11T18:32:51.694Z,99185.74
2022-12-11T18:35:18.820Z,99190.70
2022-12-11T18:37:45.596Z,99194.44
2022-12-11T18:40:11.955Z,99197.55
2022-12-11T18:42:38.293Z,99197.59
2022-12-11T18:45:06.301Z,99195.56
2022-12-11T18:47:32.831Z,99197.44
2022-12-11T18:50:03.930Z,99196.42
2022-12-11T18:52:34.058Z,99196.90
2022-12-11T18:55:00.637Z,99193.21
2022-12-11T18:57:27.047Z,99187.18
2022-12-11T18:59:54.051Z,99188.08
2022-12-11T19:02:21.921Z,99187.33
2022-12-11T19:04:48.666Z,99189.55
2022-12-11T19:07:15.421Z,99190.03
2022-12-11T19:09:47.572Z,99189.23
2022-12-11T19:12:14.645Z,99194.63
2022-12-11T19:14:41.107Z,99194.86
2022-12-11T19:17:07.460Z,99187.84
2022-12-11T19:19:34.106Z,99186.64
2022-12-11T19:22:00.461Z,99185.23
2022-12-11T19:24:27.119Z,99185.06
2022-12-11T19:26:53.588Z,99180.88
2022-12-11T19:29:22.667Z,99180.45
2022-12-11T19:31:49.336Z,99178.27
2022-12-11T19:34:18.033Z,99178.59
2022-12-11T19:36:44.444Z,99175.69
2022-12-11T19:39:13.280Z,99174.11
2022-12-11T19:41:40.821Z,99174.91
2022-12-11T19:44:07.766Z,99171.61
2022-12-11T19:46:34.526Z,99168.58
2022-12-11T19:49:02.257Z,99168.02
2022-12-11T19:51:35.739Z,99167.31
2022-12-11T19:54:02.201Z,99163.85
2022-12-11T19:56:29.054Z,99165.26
2022-12-11T19:58:55.720Z,99168.90
2022-12-11T20:01:25.819Z,99171.64
2022-12-11T20:03:57.683Z,99169.21
2022-12-11T20:06:26.619Z,99169.33
2022-12-11T20:08:53.172Z,99168.19
2022-12-11T20:11:19.642Z,99172.52
2022-12-11T20:13:47.450Z,99171.20
2022-12-11T20:16:15.084Z,99176.48
2022-12-11T20:18:41.705Z,99171.84
2022-12-11T20:21:11.101Z,99173.59
2022-12-11T20:23:37.873Z,99175.83
2022-12-11T20:26:12.747Z,99171.94
2022-12-11T20:28:39.478Z,99169.15
2022-12-11T20:31:07.721Z,99165.13
2022-12-11T20:33:34.615Z,99170.51
2022-12-11T20:36:05.221Z,99166.86
2022-12-11T20:38:35.494Z,99171.10
2022-12-11T20:41:05.640Z,99165.30
2022-12-11T20:43:33.173Z,99166.77
2022-12-11T20:45:59.624Z,99164.47
2022-12-11T20:48:26.098Z,99163.77
2022-12-11T20:50:52.474Z,99163.54
2022-12-11T20:53:18.870Z,99161.09
2022-12-11T20:55:45.188Z,99157.71
2022-12-11T20:58:11.524Z,99158.02
2022-12-11T21:00:38.930Z,99156.49
2022-12-11T21:03:05.728Z,99150.67
2022-12-11T21:05:32.157Z,99152.73
2022-12-11T21:07:58.595Z,99150.46
2022-12-11T21:10:25.235Z,99150.91
2022-12-11T21:12:51.615Z,99152.05
2022-12-11T21:15:18.124Z,99152.38
2022-12-11T21:17:45.097Z,99148.74
2022-12-11T21:20:11.542Z,99147.61
2022-12-11T21:22:38.234Z,99148.87
2022-12-11T21:25:05.708Z,99150.27
2022-12-11T21:27:32.225Z,99154.27
2022-12-11T21:29:58.679Z,99151.59
2022-12-11T21:32:25.332Z,99150.58
2022-12-11T21:34:54.709Z,99153.36
2022-12-11T21:37:21.128Z,99157.53
2022-12-11T21:39:47.472Z,99155.22
2022-12-11T21:42:13.852Z,99157.14
2022-12-11T21:45:31.504Z,99152.38
2022-12-11T21:47:30.497Z,99152.73
2022-12-11T21:49:57.333Z,99157.90
2022-12-11T21:52:23.722Z,99157.54
2022-12-11T21:54:50.065Z,99154.73
2022-12-11T21:57:18.995Z,99158.21
2022-12-11T21:59:49.159Z,99156.52
2022-12-11T22:02:15.608Z,99153.13
2022-12-11T22:04:42.020Z,99149.87
2022-12-11T22:07:08.329Z,99149.92
2022-12-11T22:09:34.799Z,99148.91
2022-12-11T22:12:01.145Z,99147.60
2022-12-11T22:14:30.064Z,99149.61
2022-12-11T22:16:57.707Z,99145.50
2022-12-11T22:19:27.845Z,99144.91
2022-12-11T22:21:58.923Z,99146.46
2022-12-11T22:24:25.258Z,99143.08
2022-12-11T22:26:53.720Z,99143.65
2022-12-11T22:29:20.188Z,99147.08
2022-12-11T22:31:46.858Z,99144.59
2022-12-11T22:34:13.496Z,99140.54
2022-12-11T22:36:40.009Z,99140.79
2022-12-11T22:39:06.471Z,99139.54
2022-12-11T22:41:33.181Z,99140.19
2022-12-11T22:43:59.637Z,99145.09
2022-12-11T22:46:28.261Z,99143.05
2022-12-11T22:48:54.651Z,99136.83
2022-12-11T22:51:22.256Z,99141.34
2022-12-11T22:53:48.738Z,99143.45
2022-12-11T22:56:15.160Z,99139.56
2022-12-11T22:58:41.858Z,99142.48
2022-12-11T23:01:10.695Z,99138.86
2022-12-11T23:03:37.276Z,99138.70
2022-12-11T23:06:08.306Z,99137.56
2022-12-11T23:08:34.994Z,99139.20
2022-12-11T23:11:02.569Z,99140.10
2022-12-11T23:13:29.660Z,99136.89
2022-12-11T23:15:56.129Z,99141.42
2022-12-11T23:18:22.485Z,99135.88
2022-12-11T23:20:49.208Z,99131.79
2022-12-11T23:23:15.546Z,99130.51
2022-12-11T23:25:41.882Z,99129.79
2022-12-11T23:28:08.218Z,99129.21
2022-12-11T23:30:34.650Z,99131.64
2022-12-11T23:33:01.137Z,99135.23
2022-12-11T23:35:27.528Z,99133.02
2022-12-11T23:37:53.852Z,99136.10
2022-12-11T23:40:20.203Z,99135.45
2022-12-11T23:42:46.558Z,99133.77
2022-12-11T23:45:13.054Z,99130.27
2022-12-11T23:47:39.651Z,99129.08
2022-12-11T23:50:06.512Z,99130.14
2022-12-11T23:52:33.032Z,99133.27
2022-12-11T23:54:59.363Z,99133.80
2022-12-11T23:57:25.872Z,99137.36
2022-12-11T23:59:52.158Z,99136.00
